Terminal Aerodrome Forecast
Issued by NWS

Home | Current Version | Previous Version | Text Only | Print | Product List | Glossary On
Versions: 1 2 3 4 5 6 7 8 9 10 11 12 13 14
000
FTUS45 KTFX 220700 AAA
TAFHLN
TAF AMD
KHLN 220701Z 2207/2306 27005KT P6SM FEW120
      TEMPO 2210/2213 VRB04KT 2SM BR OVC005=

USA.gov is the U.S. government's official web portal to all federal, state and local government web resources and services.